Terminal Aerodrome Forecast
Issued by NWS

Home | Current Version | Previous Version | Text Only | Print | Product List | Glossary On
Versions: 1 2 3 4 5 6 7 8 9 10 11 12 13 14 15 16 17 18 19 20 21 22 23 24 25 26 27 28 29 30 31 32
000
FTUS46 KOTX 300520
TAFCOE
TAF
KCOE 300520Z 3006/3106 19007KT P6SM FEW080 SCT100
     FM301500 20012G20KT 6SM -SHRA SCT035 BKN050 BKN080
     FM301900 21015G22KT P6SM -SHRA VCTS SCT040 BKN060CB BKN090
     FM310200 20012KT P6SM VCSH SCT050 BKN080
      AMD LTD TO CLD AND VIS=

USA.gov is the U.S. government's official web portal to all federal, state and local government web resources and services.